INGA4: Red River, Index, AR

                                SHEF ID:       INGA4     Red River at Index, AR
STATION TYPE: Stream Gauge
Regulating: Stage = 19.80, Flow = 104273

PRECIP STAGE RIV-FLOW WTR-TEMP BAT-LOAD
in ft cfs F volt
Ccp-Rev Ccp-Rev Ccp-Rev Ccp-Rev Ccp-Rev
(America/Chicago)
04/28 00:00 0.00 2.04 6653 76.46 12.70
04/28 01:00 0.00 2.02 6585 76.37 12.68
04/28 02:00 0.00 2.00 6517 76.30 12.66
04/28 03:00 0.00 1.99 6483 76.17 12.65
04/28 04:00 0.00 1.97 6415 76.03 12.63
04/28 05:00 0.00 1.95 6348 75.92 12.62
04/28 06:00 0.00 1.94 6314 75.87 12.61
04/28 07:00 0.00 1.93 6281 75.79 12.53
04/28 08:00 0.00 1.92 6247 75.76 12.60
04/28 09:00 0.00 1.91 6214 75.69 12.73
04/28 10:00 0.00 1.90 6180 75.65 12.87
04/28 11:00 0.00 1.90 6180 75.63 13.02
04/28 12:00 0.00 1.89 6147 75.69 13.33
04/28 13:00 0.00 1.88 6113 75.78 13.24
04/28 14:00 0.00 1.88 6113 76.06 13.49
04/28 15:00 0.00 1.88 6113 76.46 13.41
04/28 16:00 0.00 1.89 6147 76.78 13.30
04/28 17:00 0.00 1.89 6147 76.96 13.19
04/28 18:00 0.02 1.91 6214 77.14 12.96
04/28 19:00 0.00 1.92 6247 77.36 12.93
04/28 20:00 0.00 1.94 6314 77.43 13.09
04/28 21:00 0.00 1.96 6382 77.34 12.83
04/28 22:00 0.00 1.98 6449 77.16 12.72
04/28 23:00 0.00 2.01 6551 77.05 12.70
Data processed at Wed 29Apr2026 04:11 GMT

NOTICE: If you are parsing this page

Please convert to using our Data API. Starting early 2026 we will be migrating to: https://water.usace.army.mil with modern pages rendered in JavaScript. When this migration completes you will no longer be able to scrape this page! CWMSDataAPI (CDA)

Timeseries IDs (TSIDs)

TSIDs used from left to right in the data table
INDX.Precip-Inc.Total.1Hour.1Hour.Ccp-Rev
INDX.Stage.Inst.1Hour.0.Ccp-Rev
INDX.Flow.Inst.1Hour.0.Ccp-Rev
INDX.Temp-Water.Inst.1Hour.0.Ccp-Rev
INDX.Volt-Battery Load.Inst.1Hour.0.Ccp-Rev

                            

All information presented herein is the property of the government of the United States of America and may be revised or deleted at any time without prior notice. Dissemination of this information without the expressed written consent of the Public Affairs Office, Tulsa District U.S. Army Corps of Engineers is strictly prohibited. These data are gathered electronically and, as presented, have NOT undergone any form of quality control. These data are NOT guaranteed to be valid or correct.